Flight Track Log - Related Links

Times and Time Zones

All times are in EDT time to prevent confusion due to time zone crossing. See the TCF3544 flight status page for this flight to view local times or setup timezone preferences in your user account.

Time Position Orientation Groundspeed Altitude Reporting Facility
EDT Latitude Longitude Course Direction KTS MPH feet Rate Location/Type
Mon 07:45:15 PM 39.8641 -104.6332 73° East  Level FlightAware Approximate
Mon 07:46:15 PM 39.8667 -104.4828 288° West  Level FlightAware Approximate
Mon 07:47:12 PM 39.8833 -104.5500 90° East 215 247 7,000  Level Denver TRACON
Mon 07:48:06 PM 39.8833 -104.4667 90° East 284 327 8,400 2,053 Climbing Denver TRACON
Mon 07:49:06 PM 39.8833 -104.3500 91° East 310 357 10,900 2,400 Climbing Denver TRACON
Mon 07:50:41 PM 39.8811 -104.1569 89° East 358 412 14,600 2,284 Climbing Denver Center
Mon 07:51:41 PM 39.8825 -104.0217 89° East 368 423 16,800 2,100 Climbing Denver Center
Mon 07:52:41 PM 39.8839 -103.8942 88° East 373 429 18,800 2,250 Climbing Denver Center
Mon 07:53:41 PM 39.8869 -103.7508 86° East 393 452 21,300 2,100 Climbing Denver Center
Mon 07:54:41 PM 39.8939 -103.6069 85° East 393 452 23,000 1,900 Climbing Denver Center
Mon 07:55:41 PM 39.9044 -103.4578 85° East 411 473 25,100 1,850 Climbing Denver Center
Mon 07:56:41 PM 39.9150 -103.3056 84° East 411 473 26,700 1,400 Climbing Denver Center
Mon 07:57:41 PM 39.9275 -103.1558 86° East 411 473 27,900 1,150 Climbing Denver Center
Mon 07:58:41 PM 39.9369 -102.9822 85° East 427 491 29,000 1,100 Climbing Denver Center
Mon 07:59:41 PM 39.9467 -102.8219 87° East 432 497 30,100 950 Climbing Denver Center
Mon 08:00:41 PM 39.9522 -102.6725 86° East 444 511 30,900 800 Climbing Denver Center
Mon 08:01:41 PM 39.9628 -102.4931 84° East 457 526 31,700 850 Climbing Denver Center
Mon 08:02:41 PM 39.9758 -102.3269 79° East 462 532 32,600 950 Climbing Denver Center
Mon 08:03:41 PM 39.9975 -102.1819 80° East 462 532 33,600 1,050 Climbing Denver Center
Mon 08:04:41 PM 40.0186 -102.0261 81° East 447 514 34,700 700 Climbing Denver Center
Mon 08:05:41 PM 40.0408 -101.8481 79° East 447 514 35,000 150 Climbing Denver Center
Mon 08:06:41 PM 40.0639 -101.6944 80° East 441 507 35,000  Level Denver Center
Mon 08:07:42 PM 40.0831 -101.5547 82° East 434 499 35,000  Level Denver Center
Mon 08:08:42 PM 40.1025 -101.3794 79° East 434 499 35,000  Level Denver Center
Mon 08:09:41 PM 40.1247 -101.2231 81° East 429 494 35,000  Level Denver Center
Mon 08:10:41 PM 40.1444 -101.0664 79° East 429 494 35,000  Level Denver Center
Mon 08:11:41 PM 40.1647 -100.9236 81° East 434 499 35,000  Level Denver Center
Mon 08:12:42 PM 40.1856 -100.7531 82° East 434 499 35,000  Level Denver Center
Mon 08:13:41 PM 40.2028 -100.5967 87° East 428 493 35,000  Level Denver Center
Mon 08:14:42 PM 40.2078 -100.4492 88° East 441 507 35,000  Level Denver Center
Mon 08:15:41 PM 40.2111 -100.2775 88° East 447 514 35,000  Level Denver Center
Mon 08:16:42 PM 40.2144 -100.1111 89° East 449 517 35,000  Level Denver Center
Mon 08:17:42 PM 40.2175 -99.9422 90° East 456 525 35,000  Level Denver Center
Mon 08:19:31 PM 40.2158 -99.6450 89° East 476 548 35,000  Level Minneapolis Center
Mon 08:20:30 PM 40.2175 -99.4686 89° East 482 555 35,000  Level Minneapolis Center
Mon 08:21:31 PM 40.2208 -99.2925 89° East 482 555 35,000  Level Minneapolis Center
Mon 08:22:31 PM 40.2219 -99.1161 90° East 482 555 35,000  Level Minneapolis Center
Mon 08:23:31 PM 40.2228 -98.9369 90° East 482 555 35,000  Level Minneapolis Center
Mon 08:24:31 PM 40.2233 -98.7606 90° East 482 555 35,000  Level Minneapolis Center
Mon 08:25:31 PM 40.2233 -98.5842 90° East 482 555 35,000  Level Minneapolis Center
Mon 08:26:31 PM 40.2233 -98.4053 90° East 482 555 35,000  Level Minneapolis Center
Mon 08:27:31 PM 40.2231 -98.2261 89° East 482 555 35,000  Level Minneapolis Center
Mon 08:28:30 PM 40.2247 -98.0469 90° East 487 560 35,000  Level Minneapolis Center
Mon 08:29:31 PM 40.2239 -97.8653 90° East 487 560 35,000  Level Minneapolis Center
Mon 08:30:30 PM 40.2228 -97.6861 91° East 492 566 35,000  Level Minneapolis Center
Mon 08:31:31 PM 40.2214 -97.5042 92° East 499 574 35,000  Level Minneapolis Center
Mon 08:32:31 PM 40.2161 -97.3058 92° East 499 574 35,000  Level Minneapolis Center
Mon 08:33:31 PM 40.2119 -97.1264 92° East 499 574 35,000  Level Minneapolis Center
Mon 08:34:31 PM 40.2078 -96.9419 90° East 499 574 35,000  Level Minneapolis Center
Mon 08:35:31 PM 40.2072 -96.7600 91° East 499 574 35,000  Level Minneapolis Center
Mon 08:36:30 PM 40.2042 -96.5783 91° East 499 574 35,000  Level Minneapolis Center
Mon 08:37:31 PM 40.2011 -96.3964 91° East 499 574 35,000  Level Minneapolis Center
Mon 08:38:31 PM 40.1975 -96.2200 90° East 499 574 35,000  Level Minneapolis Center
Mon 08:40:48 PM 40.1992 -95.7933 90° East 508 585 35,000  Level Kansas City Center
Mon 08:41:48 PM 40.1986 -95.6278 92° East 508 585 35,000  Level Kansas City Center
Mon 08:42:48 PM 40.1942 -95.4267 90° East 503 579 35,000  Level Kansas City Center
Mon 08:43:48 PM 40.1933 -95.2392 91° East 503 579 35,000  Level Kansas City Center
Mon 08:44:48 PM 40.1903 -95.0572 90° East 503 579 35,000  Level Kansas City Center
Mon 08:45:48 PM 40.1908 -94.8942 91° East 503 579 35,000  Level Kansas City Center
Mon 08:46:48 PM 40.1872 -94.6933 91° East 503 579 35,000  Level Kansas City Center
Mon 08:47:48 PM 40.1853 -94.5114 93° East 503 579 35,000  Level Kansas City Center
Mon 08:48:48 PM 40.1789 -94.3267 92° East 498 573 35,000  Level Kansas City Center
Mon 08:49:48 PM 40.1742 -94.1583 91° East 504 580 35,000  Level Kansas City Center
Mon 08:50:48 PM 40.1717 -93.9819 91° East 499 574 35,000  Level Kansas City Center
Mon 08:51:48 PM 40.1686 -93.7972 92° East 494 568 35,000  Level Kansas City Center
Mon 08:52:48 PM 40.1631 -93.6183 91° East 494 568 35,000  Level Kansas City Center
Mon 08:53:48 PM 40.1597 -93.4364 92° East 494 568 35,000  Level Kansas City Center
Mon 08:54:48 PM 40.1536 -93.2519 93° East 494 568 35,000  Level Kansas City Center
Mon 08:55:48 PM 40.1453 -93.0728 90° East 494 568 35,000  Level Kansas City Center
Mon 08:56:48 PM 40.1450 -92.8694 94° East 499 574 35,000  Level Kansas City Center
Mon 08:57:48 PM 40.1364 -92.7067 94° East 494 568 35,000  Level Kansas City Center
Mon 08:58:48 PM 40.1272 -92.5253 96° East 501 577 35,000  Level Kansas City Center
Mon 08:59:48 PM 40.1111 -92.3250 97° East 496 571 35,000  Level Kansas City Center
Mon 09:00:48 PM 40.0931 -92.1436 96° East 501 577 35,000  Level Kansas City Center
Mon 09:01:48 PM 40.0794 -91.9761 99° East 501 577 35,000  Level Kansas City Center
Mon 09:02:48 PM 40.0589 -91.7978 96° East 501 577 35,000  Level Kansas City Center
Mon 09:03:48 PM 40.0442 -91.6114 98° East 501 577 35,000  Level Kansas City Center
Mon 09:04:48 PM 40.0250 -91.4306 97° East 501 577 35,000  Level Kansas City Center
Mon 09:05:48 PM 40.0075 -91.2472 98° East 501 577 35,000  Level Kansas City Center
Mon 09:06:48 PM 39.9878 -91.0611 98° East 506 582 35,000  Level Kansas City Center
Mon 09:07:48 PM 39.9678 -90.8781 97° East 506 582 35,000  Level Kansas City Center
Mon 09:08:48 PM 39.9497 -90.6950 98° East 506 582 35,000  Level Kansas City Center
Mon 09:09:48 PM 39.9292 -90.5119 97° East 506 582 35,000  Level Kansas City Center
Mon 09:10:48 PM 39.9103 -90.3236 99° East 512 589 35,000  Level Kansas City Center
Mon 09:11:48 PM 39.8869 -90.1383 98° East 522 601 35,000  Level Kansas City Center
Mon 09:12:48 PM 39.8675 -89.9531 98° East 522 601 35,000  Level Kansas City Center
Mon 09:13:48 PM 39.8481 -89.7706 94° East 517 595 35,000  Level Kansas City Center
Mon 09:14:48 PM 39.8381 -89.5792 90° East 517 595 35,000  Level Kansas City Center
Mon 09:15:48 PM 39.8386 -89.3925 89° East 517 595 35,000 -150 Level Kansas City Center
Mon 09:16:48 PM 39.8406 -89.1978 90° East 523 602 34,700 -850 Descending Kansas City Center
Mon 09:17:48 PM 39.8400 -89.0006 91° East 534 615 33,300 -1,277 Descending Kansas City Center
Mon 09:19:23 PM 39.8369 -88.7028 91° East 549 632 31,400 -1,897 Descending Indianapolis Center
Mon 09:20:23 PM 39.8347 -88.5106 90° East 535 616 28,400 -2,900 Descending Indianapolis Center
Mon 09:21:23 PM 39.8342 -88.3186 89° East 535 616 25,600 -2,200 Descending Indianapolis Center
Mon 09:22:23 PM 39.8358 -88.1211 91° East 522 601 24,000 -1,300 Descending Indianapolis Center
Mon 09:23:23 PM 39.8322 -87.9397 91° East 503 579 23,000 -1,800 Descending Indianapolis Center
Mon 09:24:23 PM 39.8303 -87.7667 89° East 491 565 20,400 -2,500 Descending Indianapolis Center
Mon 09:25:23 PM 39.8317 -87.6017 90° East 463 533 18,000 -2,400 Descending Indianapolis Center
Mon 09:26:23 PM 39.8308 -87.4447 92° East 449 517 15,600 -2,350 Descending Indianapolis Center
Mon 09:27:23 PM 39.8272 -87.2933 91° East 431 496 13,300 -1,800 Descending Indianapolis Center
Mon 09:28:23 PM 39.8256 -87.1472 94° East 410 472 12,000 -650 Descending Indianapolis Center
Mon 09:29:23 PM 39.8172 -87.0061 107° East 395 455 12,000  Level Indianapolis Center
Mon 09:30:23 PM 39.7858 -86.8694 105° East 388 447 12,000 -400 Level Indianapolis Center
Mon 09:31:23 PM 39.7581 -86.7358 104° East 398 458 11,200 -1,050 Descending Indianapolis Center
Mon 09:32:23 PM 39.7361 -86.6242 92° East 358 412 9,900 -1,700 Descending Indianapolis Center
Mon 09:33:23 PM 39.7325 -86.5161 58° Northeast 312 359 7,800 -1,900 Descending Indianapolis Center
Mon 09:34:23 PM 39.7722 -86.4339 59° Northeast 285 328 6,100 -1,750 Descending Indianapolis Center
Mon 09:35:23 PM 39.8161 -86.3383 52° Northeast 297 342 4,300 -1,050 Descending Indianapolis Center
Mon 09:36:23 PM 39.8639 -86.2592 60° Northeast 287 330 4,000 -350 Descending Indianapolis Center
Mon 09:37:23 PM 39.9033 -86.1686 150° Southeast 275 316 3,600 -500 Descending Indianapolis Center
Mon 09:38:23 PM 39.8439 -86.1231 222° Southwest 249 287 3,000 -300 Descending Indianapolis Center
Mon 09:39:23 PM 39.7989 -86.1756 222° Southwest 211 243 3,000  Level Indianapolis Center

Login

Don't have an account? Register now (free) for customized features, flight alerts, and more!